Annapolis Junction, Maryland
Current Conditions -  °F | °C
As of 9:03 AM on Monday 24 Nov 2014 (Local Time) from KFME Reporting Station
Clear Clear  
Wind Chill: 18°   Ceiling: Unl
Heat Index: 18°   Visibility: 10mi
Dew Point: 14°   Wind: 13mph
Humidity: 77%   Direction: 220°SW
Pressure: 29.7"   Gusts: 24mph
Location:  39.13°N, 76.8°W
Report Text: KFME 241403Z AUTO 22011G21KT 170V230 10SM CLR 18/14 A2970 RMK AO1
Loading
Personal Weather Stations






























Interactive Weather Map New forecast layout! Learn more

10-Day Weather Forecast

Advertisements
Track Severe Weather on mobile